sensor_id;sensor_type;location;lat;lon;timestamp;P1;P2;P0
63915;PMS5003;50094;51.356;-0.196;2022-08-05T00:02:24;1;1;
63915;PMS5003;50094;51.356;-0.196;2022-08-05T00:04:52;1;1;
63915;PMS5003;50094;51.356;-0.196;2022-08-05T00:07:19;1;1;
63915;PMS5003;50094;51.356;-0.196;2022-08-05T00:09:47;1;1;
63915;PMS5003;50094;51.356;-0.196;2022-08-05T00:12:15;3;2;
63915;PMS5003;50094;51.356;-0.196;2022-08-05T00:14:42;2;2;
63915;PMS5003;50094;51.356;-0.196;2022-08-05T00:17:10;1;1;
63915;PMS5003;50094;51.356;-0.196;2022-08-05T00:19:37;1;1;
63915;PMS5003;50094;51.356;-0.196;2022-08-05T00:22:05;1;1;
63915;PMS5003;50094;51.356;-0.196;2022-08-05T00:24:33;1;1;
63915;PMS5003;50094;51.356;-0.196;2022-08-05T00:27:00;1;1;
63915;PMS5003;50094;51.356;-0.196;2022-08-05T00:29:28;1;1;
63915;PMS5003;50094;51.356;-0.196;2022-08-05T00:31:55;1;1;
63915;PMS5003;50094;51.356;-0.196;2022-08-05T00:34:23;1;1;
63915;PMS5003;50094;51.356;-0.196;2022-08-05T00:36:51;1;0;
63915;PMS5003;50094;51.356;-0.196;2022-08-05T00:39:18;1;0;
63915;PMS5003;50094;51.356;-0.196;2022-08-05T00:41:46;3;2;
63915;PMS5003;50094;51.356;-0.196;2022-08-05T00:44:13;1;1;
63915;PMS5003;50094;51.356;-0.196;2022-08-05T00:46:41;0;0;
63915;PMS5003;50094;51.356;-0.196;2022-08-05T00:49:09;1;1;
63915;PMS5003;50094;51.356;-0.196;2022-08-05T00:51:36;3;3;
63915;PMS5003;50094;51.356;-0.196;2022-08-05T00:54:04;1;1;
63915;PMS5003;50094;51.356;-0.196;2022-08-05T00:56:31;0;0;
63915;PMS5003;50094;51.356;-0.196;2022-08-05T00:58:59;1;1;
63915;PMS5003;50094;51.356;-0.196;2022-08-05T01:01:27;1;1;
63915;PMS5003;50094;51.356;-0.196;2022-08-05T01:03:54;2;0;
63915;PMS5003;50094;51.356;-0.196;2022-08-05T01:06:22;1;1;
63915;PMS5003;50094;51.356;-0.196;2022-08-05T01:08:49;1;1;
63915;PMS5003;50094;51.356;-0.196;2022-08-05T01:11:18;1;1;
63915;PMS5003;50094;51.356;-0.196;2022-08-05T01:13:51;1;1;
63915;PMS5003;50094;51.356;-0.196;2022-08-05T01:16:27;0;0;
63915;PMS5003;50094;51.356;-0.196;2022-08-05T01:18:59;4;1;
63915;PMS5003;50094;51.356;-0.196;2022-08-05T01:21:51;0;0;
63915;PMS5003;50094;51.356;-0.196;2022-08-05T01:24:36;1;1;
63915;PMS5003;50094;51.356;-0.196;2022-08-05T01:27:23;0;0;
63915;PMS5003;50094;51.356;-0.196;2022-08-05T01:30:01;0;0;
63915;PMS5003;50094;51.356;-0.196;2022-08-05T01:32:30;2;0;
63915;PMS5003;50094;51.356;-0.196;2022-08-05T01:35:02;2;0;
63915;PMS5003;50094;51.356;-0.196;2022-08-05T01:37:36;1;1;
63915;PMS5003;50094;51.356;-0.196;2022-08-05T01:40:08;2;1;
63915;PMS5003;50094;51.356;-0.196;2022-08-05T01:42:37;2;0;
63915;PMS5003;50094;51.356;-0.196;2022-08-05T01:45:07;0;0;
63915;PMS5003;50094;51.356;-0.196;2022-08-05T01:47:35;1;0;
63915;PMS5003;50094;51.356;-0.196;2022-08-05T01:50:04;1;1;
63915;PMS5003;50094;51.356;-0.196;2022-08-05T01:52:35;1;1;
63915;PMS5003;50094;51.356;-0.196;2022-08-05T01:55:05;1;1;
63915;PMS5003;50094;51.356;-0.196;2022-08-05T01:57:37;1;1;
63915;PMS5003;50094;51.356;-0.196;2022-08-05T02:00:06;0;0;
63915;PMS5003;50094;51.356;-0.196;2022-08-05T02:02:35;1;1;
63915;PMS5003;50094;51.356;-0.196;2022-08-05T02:05:06;1;1;
63915;PMS5003;50094;51.356;-0.196;2022-08-05T02:07:37;2;2;
63915;PMS5003;50094;51.356;-0.196;2022-08-05T02:10:06;1;1;
63915;PMS5003;50094;51.356;-0.196;2022-08-05T02:12:36;1;1;
63915;PMS5003;50094;51.356;-0.196;2022-08-05T02:15:11;1;0;
63915;PMS5003;50094;51.356;-0.196;2022-08-05T02:17:44;2;1;
63915;PMS5003;50094;51.356;-0.196;2022-08-05T02:20:17;1;1;
63915;PMS5003;50094;51.356;-0.196;2022-08-05T02:22:49;2;2;
63915;PMS5003;50094;51.356;-0.196;2022-08-05T02:25:23;0;0;
63915;PMS5003;50094;51.356;-0.196;2022-08-05T02:27:52;2;1;
63915;PMS5003;50094;51.356;-0.196;2022-08-05T02:30:21;0;0;
63915;PMS5003;50094;51.356;-0.196;2022-08-05T02:32:51;1;1;
63915;PMS5003;50094;51.356;-0.196;2022-08-05T02:35:21;3;1;
63915;PMS5003;50094;51.356;-0.196;2022-08-05T02:37:51;1;1;
63915;PMS5003;50094;51.356;-0.196;2022-08-05T02:40:21;1;0;
63915;PMS5003;50094;51.356;-0.196;2022-08-05T02:42:50;0;0;
63915;PMS5003;50094;51.356;-0.196;2022-08-05T02:45:20;2;1;
63915;PMS5003;50094;51.356;-0.196;2022-08-05T02:47:50;1;1;
63915;PMS5003;50094;51.356;-0.196;2022-08-05T02:50:18;0;0;
63915;PMS5003;50094;51.356;-0.196;2022-08-05T02:52:47;0;0;
63915;PMS5003;50094;51.356;-0.196;2022-08-05T02:55:16;1;1;
63915;PMS5003;50094;51.356;-0.196;2022-08-05T02:57:43;0;0;
63915;PMS5003;50094;51.356;-0.196;2022-08-05T03:00:12;0;0;
63915;PMS5003;50094;51.356;-0.196;2022-08-05T03:02:40;1;1;
63915;PMS5003;50094;51.356;-0.196;2022-08-05T03:05:10;0;0;
63915;PMS5003;50094;51.356;-0.196;2022-08-05T03:07:38;2;2;
63915;PMS5003;50094;51.356;-0.196;2022-08-05T03:10:07;2;2;
63915;PMS5003;50094;51.356;-0.196;2022-08-05T03:12:36;1;1;
63915;PMS5003;50094;51.356;-0.196;2022-08-05T03:15:04;1;1;
63915;PMS5003;50094;51.356;-0.196;2022-08-05T03:17:34;3;3;
63915;PMS5003;50094;51.356;-0.196;2022-08-05T03:20:02;0;0;
63915;PMS5003;50094;51.356;-0.196;2022-08-05T03:22:30;0;0;
63915;PMS5003;50094;51.356;-0.196;2022-08-05T03:24:58;1;0;
63915;PMS5003;50094;51.356;-0.196;2022-08-05T03:27:26;0;0;
63915;PMS5003;50094;51.356;-0.196;2022-08-05T03:29:54;0;0;
63915;PMS5003;50094;51.356;-0.196;2022-08-05T03:32:22;1;1;
63915;PMS5003;50094;51.356;-0.196;2022-08-05T03:34:49;1;1;
63915;PMS5003;50094;51.356;-0.196;2022-08-05T03:37:19;1;1;
63915;PMS5003;50094;51.356;-0.196;2022-08-05T03:39:54;2;2;
63915;PMS5003;50094;51.356;-0.196;2022-08-05T03:42:22;0;0;
63915;PMS5003;50094;51.356;-0.196;2022-08-05T03:44:49;4;2;
63915;PMS5003;50094;51.356;-0.196;2022-08-05T03:47:17;0;0;
63915;PMS5003;50094;51.356;-0.196;2022-08-05T03:49:44;0;0;
63915;PMS5003;50094;51.356;-0.196;2022-08-05T03:52:15;3;2;
63915;PMS5003;50094;51.356;-0.196;2022-08-05T03:54:49;1;1;
63915;PMS5003;50094;51.356;-0.196;2022-08-05T03:57:21;0;0;
63915;PMS5003;50094;51.356;-0.196;2022-08-05T03:59:54;1;1;
63915;PMS5003;50094;51.356;-0.196;2022-08-05T04:02:24;1;1;
63915;PMS5003;50094;51.356;-0.196;2022-08-05T04:04:56;3;1;
63915;PMS5003;50094;51.356;-0.196;2022-08-05T04:07:25;2;0;
63915;PMS5003;50094;51.356;-0.196;2022-08-05T04:09:54;2;2;
63915;PMS5003;50094;51.356;-0.196;2022-08-05T04:12:22;2;2;
63915;PMS5003;50094;51.356;-0.196;2022-08-05T04:14:50;2;2;
63915;PMS5003;50094;51.356;-0.196;2022-08-05T04:17:17;3;3;
63915;PMS5003;50094;51.356;-0.196;2022-08-05T04:19:46;2;2;
63915;PMS5003;50094;51.356;-0.196;2022-08-05T04:22:14;3;2;
63915;PMS5003;50094;51.356;-0.196;2022-08-05T04:24:42;2;2;
63915;PMS5003;50094;51.356;-0.196;2022-08-05T04:27:11;2;2;
63915;PMS5003;50094;51.356;-0.196;2022-08-05T04:29:39;0;0;
63915;PMS5003;50094;51.356;-0.196;2022-08-05T04:32:07;3;2;
63915;PMS5003;50094;51.356;-0.196;2022-08-05T04:34:34;3;3;
63915;PMS5003;50094;51.356;-0.196;2022-08-05T04:37:02;2;1;
63915;PMS5003;50094;51.356;-0.196;2022-08-05T04:39:29;3;2;
63915;PMS5003;50094;51.356;-0.196;2022-08-05T04:41:57;0;0;
63915;PMS5003;50094;51.356;-0.196;2022-08-05T04:44:25;1;1;
63915;PMS5003;50094;51.356;-0.196;2022-08-05T04:46:52;1;1;
63915;PMS5003;50094;51.356;-0.196;2022-08-05T04:49:20;3;1;
63915;PMS5003;50094;51.356;-0.196;2022-08-05T04:51:47;1;1;
63915;PMS5003;50094;51.356;-0.196;2022-08-05T04:54:14;2;2;
63915;PMS5003;50094;51.356;-0.196;2022-08-05T04:56:42;2;2;
63915;PMS5003;50094;51.356;-0.196;2022-08-05T04:59:10;3;1;
63915;PMS5003;50094;51.356;-0.196;2022-08-05T05:01:37;1;0;
63915;PMS5003;50094;51.356;-0.196;2022-08-05T05:04:05;1;1;
63915;PMS5003;50094;51.356;-0.196;2022-08-05T05:06:32;1;1;
63915;PMS5003;50094;51.356;-0.196;2022-08-05T05:09:00;0;0;
63915;PMS5003;50094;51.356;-0.196;2022-08-05T05:11:28;2;2;
63915;PMS5003;50094;51.356;-0.196;2022-08-05T05:13:55;1;1;
63915;PMS5003;50094;51.356;-0.196;2022-08-05T05:16:23;1;1;
63915;PMS5003;50094;51.356;-0.196;2022-08-05T05:18:50;2;1;
63915;PMS5003;50094;51.356;-0.196;2022-08-05T05:21:18;0;0;
63915;PMS5003;50094;51.356;-0.196;2022-08-05T05:23:46;0;0;
63915;PMS5003;50094;51.356;-0.196;2022-08-05T05:26:13;1;1;
63915;PMS5003;50094;51.356;-0.196;2022-08-05T05:28:41;0;0;
63915;PMS5003;50094;51.356;-0.196;2022-08-05T05:31:08;1;1;
63915;PMS5003;50094;51.356;-0.196;2022-08-05T05:33:36;0;0;
63915;PMS5003;50094;51.356;-0.196;2022-08-05T05:36:04;3;1;
63915;PMS5003;50094;51.356;-0.196;2022-08-05T05:38:31;1;0;
63915;PMS5003;50094;51.356;-0.196;2022-08-05T05:40:59;1;1;
63915;PMS5003;50094;51.356;-0.196;2022-08-05T05:43:26;2;1;
63915;PMS5003;50094;51.356;-0.196;2022-08-05T05:45:54;0;0;
63915;PMS5003;50094;51.356;-0.196;2022-08-05T05:48:21;1;1;
63915;PMS5003;50094;51.356;-0.196;2022-08-05T05:50:49;3;1;
63915;PMS5003;50094;51.356;-0.196;2022-08-05T05:53:17;1;1;
63915;PMS5003;50094;51.356;-0.196;2022-08-05T05:55:44;0;0;
63915;PMS5003;50094;51.356;-0.196;2022-08-05T05:58:12;0;0;
63915;PMS5003;50094;51.356;-0.196;2022-08-05T06:00:40;1;1;
63915;PMS5003;50094;51.356;-0.196;2022-08-05T06:03:07;0;0;
63915;PMS5003;50094;51.356;-0.196;2022-08-05T06:05:34;0;0;
63915;PMS5003;50094;51.356;-0.196;2022-08-05T06:08:02;0;0;
63915;PMS5003;50094;51.356;-0.196;2022-08-05T06:10:30;1;1;
63915;PMS5003;50094;51.356;-0.196;2022-08-05T06:12:57;0;0;
63915;PMS5003;50094;51.356;-0.196;2022-08-05T06:15:25;0;0;
63915;PMS5003;50094;51.356;-0.196;2022-08-05T06:17:52;1;1;
63915;PMS5003;50094;51.356;-0.196;2022-08-05T06:20:20;1;1;
63915;PMS5003;50094;51.356;-0.196;2022-08-05T06:22:48;0;0;
63915;PMS5003;50094;51.356;-0.196;2022-08-05T06:25:15;1;1;
63915;PMS5003;50094;51.356;-0.196;2022-08-05T06:27:43;1;1;
63915;PMS5003;50094;51.356;-0.196;2022-08-05T06:30:11;0;0;
63915;PMS5003;50094;51.356;-0.196;2022-08-05T06:32:38;0;0;
63915;PMS5003;50094;51.356;-0.196;2022-08-05T06:35:06;1;1;
63915;PMS5003;50094;51.356;-0.196;2022-08-05T06:37:33;4;4;
63915;PMS5003;50094;51.356;-0.196;2022-08-05T06:40:00;0;0;
63915;PMS5003;50094;51.356;-0.196;2022-08-05T06:42:28;1;1;
63915;PMS5003;50094;51.356;-0.196;2022-08-05T06:44:56;1;0;
63915;PMS5003;50094;51.356;-0.196;2022-08-05T06:47:23;1;1;
63915;PMS5003;50094;51.356;-0.196;2022-08-05T06:49:51;1;1;
63915;PMS5003;50094;51.356;-0.196;2022-08-05T06:52:18;0;0;
63915;PMS5003;50094;51.356;-0.196;2022-08-05T06:54:45;0;0;
63915;PMS5003;50094;51.356;-0.196;2022-08-05T06:57:13;0;0;
63915;PMS5003;50094;51.356;-0.196;2022-08-05T06:59:40;1;1;
63915;PMS5003;50094;51.356;-0.196;2022-08-05T07:02:07;1;1;
63915;PMS5003;50094;51.356;-0.196;2022-08-05T07:04:35;1;1;
63915;PMS5003;50094;51.356;-0.196;2022-08-05T07:07:03;0;0;
63915;PMS5003;50094;51.356;-0.196;2022-08-05T07:09:30;0;0;
63915;PMS5003;50094;51.356;-0.196;2022-08-05T07:11:58;0;0;
63915;PMS5003;50094;51.356;-0.196;2022-08-05T07:14:26;0;0;
63915;PMS5003;50094;51.356;-0.196;2022-08-05T07:16:53;4;2;
63915;PMS5003;50094;51.356;-0.196;2022-08-05T07:19:21;1;1;
63915;PMS5003;50094;51.356;-0.196;2022-08-05T07:21:48;4;4;
63915;PMS5003;50094;51.356;-0.196;2022-08-05T07:24:16;11;11;
63915;PMS5003;50094;51.356;-0.196;2022-08-05T07:26:44;5;5;
63915;PMS5003;50094;51.356;-0.196;2022-08-05T07:29:11;3;3;
63915;PMS5003;50094;51.356;-0.196;2022-08-05T07:31:39;12;12;
63915;PMS5003;50094;51.356;-0.196;2022-08-05T07:34:07;8;8;
63915;PMS5003;50094;51.356;-0.196;2022-08-05T07:36:35;8;8;
63915;PMS5003;50094;51.356;-0.196;2022-08-05T07:39:03;8;8;
63915;PMS5003;50094;51.356;-0.196;2022-08-05T07:41:31;7;7;
63915;PMS5003;50094;51.356;-0.196;2022-08-05T07:43:59;4;4;
63915;PMS5003;50094;51.356;-0.196;2022-08-05T07:46:28;9;9;
63915;PMS5003;50094;51.356;-0.196;2022-08-05T07:48:57;11;10;
63915;PMS5003;50094;51.356;-0.196;2022-08-05T07:51:26;17;15;
63915;PMS5003;50094;51.356;-0.196;2022-08-05T07:53:53;14;13;
63915;PMS5003;50094;51.356;-0.196;2022-08-05T07:56:21;10;10;
63915;PMS5003;50094;51.356;-0.196;2022-08-05T07:58:48;10;10;
63915;PMS5003;50094;51.356;-0.196;2022-08-05T08:01:15;13;12;
63915;PMS5003;50094;51.356;-0.196;2022-08-05T08:03:43;10;8;
63915;PMS5003;50094;51.356;-0.196;2022-08-05T08:06:10;9;9;
63915;PMS5003;50094;51.356;-0.196;2022-08-05T08:08:38;10;8;
63915;PMS5003;50094;51.356;-0.196;2022-08-05T08:11:04;11;10;
63915;PMS5003;50094;51.356;-0.196;2022-08-05T08:13:32;7;7;
63915;PMS5003;50094;51.356;-0.196;2022-08-05T08:16:00;9;8;
63915;PMS5003;50094;51.356;-0.196;2022-08-05T08:18:27;9;9;
63915;PMS5003;50094;51.356;-0.196;2022-08-05T08:20:54;10;10;
63915;PMS5003;50094;51.356;-0.196;2022-08-05T08:23:21;11;7;
63915;PMS5003;50094;51.356;-0.196;2022-08-05T08:25:49;8;7;
63915;PMS5003;50094;51.356;-0.196;2022-08-05T08:28:17;10;10;
63915;PMS5003;50094;51.356;-0.196;2022-08-05T08:30:44;11;7;
63915;PMS5003;50094;51.356;-0.196;2022-08-05T08:33:11;7;7;
63915;PMS5003;50094;51.356;-0.196;2022-08-05T08:35:38;8;6;
63915;PMS5003;50094;51.356;-0.196;2022-08-05T08:38:05;10;8;
63915;PMS5003;50094;51.356;-0.196;2022-08-05T08:40:34;7;7;
63915;PMS5003;50094;51.356;-0.196;2022-08-05T08:43:02;7;7;
63915;PMS5003;50094;51.356;-0.196;2022-08-05T08:45:29;5;5;
63915;PMS5003;50094;51.356;-0.196;2022-08-05T08:47:58;7;7;
63915;PMS5003;50094;51.356;-0.196;2022-08-05T08:50:26;5;5;
63915;PMS5003;50094;51.356;-0.196;2022-08-05T08:52:57;6;5;
63915;PMS5003;50094;51.356;-0.196;2022-08-05T08:55:29;7;6;
63915;PMS5003;50094;51.356;-0.196;2022-08-05T08:57:57;5;4;
63915;PMS5003;50094;51.356;-0.196;2022-08-05T09:00:26;5;5;
63915;PMS5003;50094;51.356;-0.196;2022-08-05T09:02:54;6;5;
63915;PMS5003;50094;51.356;-0.196;2022-08-05T09:05:23;4;4;
63915;PMS5003;50094;51.356;-0.196;2022-08-05T09:07:50;3;3;
63915;PMS5003;50094;51.356;-0.196;2022-08-05T09:10:19;6;4;
63915;PMS5003;50094;51.356;-0.196;2022-08-05T09:12:47;5;5;
63915;PMS5003;50094;51.356;-0.196;2022-08-05T09:15:15;4;4;
63915;PMS5003;50094;51.356;-0.196;2022-08-05T09:17:42;4;4;
63915;PMS5003;50094;51.356;-0.196;2022-08-05T09:20:10;2;2;
63915;PMS5003;50094;51.356;-0.196;2022-08-05T09:23:14;2;2;
63915;PMS5003;50094;51.356;-0.196;2022-08-05T09:25:44;4;4;
63915;PMS5003;50094;51.356;-0.196;2022-08-05T09:28:12;4;3;
63915;PMS5003;50094;51.356;-0.196;2022-08-05T09:30:42;3;3;
63915;PMS5003;50094;51.356;-0.196;2022-08-05T09:33:10;2;2;
63915;PMS5003;50094;51.356;-0.196;2022-08-05T09:35:38;4;3;
63915;PMS5003;50094;51.356;-0.196;2022-08-05T09:38:19;6;4;
63915;PMS5003;50094;51.356;-0.196;2022-08-05T09:40:47;5;3;
63915;PMS5003;50094;51.356;-0.196;2022-08-05T09:43:31;2;2;
63915;PMS5003;50094;51.356;-0.196;2022-08-05T09:45:58;2;2;
63915;PMS5003;50094;51.356;-0.196;2022-08-05T09:48:26;6;3;
63915;PMS5003;50094;51.356;-0.196;2022-08-05T09:50:57;3;3;
63915;PMS5003;50094;51.356;-0.196;2022-08-05T09:53:26;4;3;
63915;PMS5003;50094;51.356;-0.196;2022-08-05T09:55:56;3;3;
63915;PMS5003;50094;51.356;-0.196;2022-08-05T09:58:25;4;2;
63915;PMS5003;50094;51.356;-0.196;2022-08-05T10:00:54;4;4;
63915;PMS5003;50094;51.356;-0.196;2022-08-05T10:03:24;1;1;
63915;PMS5003;50094;51.356;-0.196;2022-08-05T10:06:00;3;3;
63915;PMS5003;50094;51.356;-0.196;2022-08-05T10:08:31;4;3;
63915;PMS5003;50094;51.356;-0.196;2022-08-05T10:10:59;3;3;
63915;PMS5003;50094;51.356;-0.196;2022-08-05T10:13:30;3;2;
63915;PMS5003;50094;51.356;-0.196;2022-08-05T10:15:58;3;3;
63915;PMS5003;50094;51.356;-0.196;2022-08-05T10:18:26;1;1;
63915;PMS5003;50094;51.356;-0.196;2022-08-05T10:20:54;2;2;
63915;PMS5003;50094;51.356;-0.196;2022-08-05T10:23:24;3;2;
63915;PMS5003;50094;51.356;-0.196;2022-08-05T10:25:53;2;2;
63915;PMS5003;50094;51.356;-0.196;2022-08-05T10:28:20;2;2;
63915;PMS5003;50094;51.356;-0.196;2022-08-05T10:30:48;2;2;
63915;PMS5003;50094;51.356;-0.196;2022-08-05T10:33:17;3;2;
63915;PMS5003;50094;51.356;-0.196;2022-08-05T10:35:45;3;3;
63915;PMS5003;50094;51.356;-0.196;2022-08-05T10:38:12;6;1;
63915;PMS5003;50094;51.356;-0.196;2022-08-05T10:40:42;1;1;
63915;PMS5003;50094;51.356;-0.196;2022-08-05T10:43:16;2;2;
63915;PMS5003;50094;51.356;-0.196;2022-08-05T10:45:56;2;2;
63915;PMS5003;50094;51.356;-0.196;2022-08-05T10:48:29;2;2;
63915;PMS5003;50094;51.356;-0.196;2022-08-05T10:51:00;3;2;
63915;PMS5003;50094;51.356;-0.196;2022-08-05T10:53:32;1;1;
63915;PMS5003;50094;51.356;-0.196;2022-08-05T10:56:05;2;2;
63915;PMS5003;50094;51.356;-0.196;2022-08-05T10:58:34;1;1;
63915;PMS5003;50094;51.356;-0.196;2022-08-05T11:01:03;1;1;
63915;PMS5003;50094;51.356;-0.196;2022-08-05T11:03:31;3;2;
63915;PMS5003;50094;51.356;-0.196;2022-08-05T11:06:08;1;1;
63915;PMS5003;50094;51.356;-0.196;2022-08-05T11:08:37;0;0;
63915;PMS5003;50094;51.356;-0.196;2022-08-05T11:11:39;1;1;
63915;PMS5003;50094;51.356;-0.196;2022-08-05T11:14:06;0;0;
63915;PMS5003;50094;51.356;-0.196;2022-08-05T11:16:36;0;0;
63915;PMS5003;50094;51.356;-0.196;2022-08-05T11:19:42;3;0;
63915;PMS5003;50094;51.356;-0.196;2022-08-05T11:22:44;3;2;
63915;PMS5003;50094;51.356;-0.196;2022-08-05T11:25:28;5;1;
63915;PMS5003;50094;51.356;-0.196;2022-08-05T11:27:56;0;0;
63915;PMS5003;50094;51.356;-0.196;2022-08-05T11:31:20;1;1;
63915;PMS5003;50094;51.356;-0.196;2022-08-05T11:33:53;1;1;
63915;PMS5003;50094;51.356;-0.196;2022-08-05T11:36:38;0;0;
63915;PMS5003;50094;51.356;-0.196;2022-08-05T11:39:07;1;1;
63915;PMS5003;50094;51.356;-0.196;2022-08-05T11:41:34;2;2;
63915;PMS5003;50094;51.356;-0.196;2022-08-05T11:44:03;2;2;
63915;PMS5003;50094;51.356;-0.196;2022-08-05T11:46:33;1;1;
63915;PMS5003;50094;51.356;-0.196;2022-08-05T11:49:03;2;2;
63915;PMS5003;50094;51.356;-0.196;2022-08-05T11:51:31;1;1;
63915;PMS5003;50094;51.356;-0.196;2022-08-05T11:53:58;0;0;
63915;PMS5003;50094;51.356;-0.196;2022-08-05T11:56:41;1;1;
63915;PMS5003;50094;51.356;-0.196;2022-08-05T11:59:11;1;1;
63915;PMS5003;50094;51.356;-0.196;2022-08-05T12:01:59;1;1;
63915;PMS5003;50094;51.356;-0.196;2022-08-05T12:04:37;0;0;
63915;PMS5003;50094;51.356;-0.196;2022-08-05T12:07:07;1;0;
63915;PMS5003;50094;51.356;-0.196;2022-08-05T12:09:36;3;2;
63915;PMS5003;50094;51.356;-0.196;2022-08-05T12:12:04;1;1;
63915;PMS5003;50094;51.356;-0.196;2022-08-05T12:14:36;0;0;
63915;PMS5003;50094;51.356;-0.196;2022-08-05T12:17:06;2;2;
63915;PMS5003;50094;51.356;-0.196;2022-08-05T12:19:39;1;1;
63915;PMS5003;50094;51.356;-0.196;2022-08-05T12:22:07;0;0;
63915;PMS5003;50094;51.356;-0.196;2022-08-05T12:24:38;2;1;
63915;PMS5003;50094;51.356;-0.196;2022-08-05T12:27:07;1;1;
63915;PMS5003;50094;51.356;-0.196;2022-08-05T12:29:35;0;0;
63915;PMS5003;50094;51.356;-0.196;2022-08-05T12:32:03;0;0;
63915;PMS5003;50094;51.356;-0.196;2022-08-05T12:34:32;1;0;
63915;PMS5003;50094;51.356;-0.196;2022-08-05T12:37:05;1;1;
63915;PMS5003;50094;51.356;-0.196;2022-08-05T12:39:34;0;0;
63915;PMS5003;50094;51.356;-0.196;2022-08-05T12:42:01;0;0;
63915;PMS5003;50094;51.356;-0.196;2022-08-05T12:44:29;1;1;
63915;PMS5003;50094;51.356;-0.196;2022-08-05T12:46:56;2;1;
63915;PMS5003;50094;51.356;-0.196;2022-08-05T12:49:24;0;0;
63915;PMS5003;50094;51.356;-0.196;2022-08-05T12:51:52;0;0;
63915;PMS5003;50094;51.356;-0.196;2022-08-05T12:54:22;0;0;
63915;PMS5003;50094;51.356;-0.196;2022-08-05T12:56:52;0;0;
63915;PMS5003;50094;51.356;-0.196;2022-08-05T12:59:21;1;1;
63915;PMS5003;50094;51.356;-0.196;2022-08-05T13:01:54;2;0;
63915;PMS5003;50094;51.356;-0.196;2022-08-05T13:04:24;0;0;
63915;PMS5003;50094;51.356;-0.196;2022-08-05T13:06:54;1;1;
63915;PMS5003;50094;51.356;-0.196;2022-08-05T13:09:23;0;0;
63915;PMS5003;50094;51.356;-0.196;2022-08-05T13:11:55;1;1;
63915;PMS5003;50094;51.356;-0.196;2022-08-05T13:14:28;1;1;
63915;PMS5003;50094;51.356;-0.196;2022-08-05T13:17:01;2;1;
63915;PMS5003;50094;51.356;-0.196;2022-08-05T13:19:33;0;0;
63915;PMS5003;50094;51.356;-0.196;2022-08-05T13:22:01;1;1;
63915;PMS5003;50094;51.356;-0.196;2022-08-05T13:24:28;2;2;
63915;PMS5003;50094;51.356;-0.196;2022-08-05T13:26:56;1;1;
63915;PMS5003;50094;51.356;-0.196;2022-08-05T13:29:24;0;0;
63915;PMS5003;50094;51.356;-0.196;2022-08-05T13:31:51;0;0;
63915;PMS5003;50094;51.356;-0.196;2022-08-05T13:34:19;1;1;
63915;PMS5003;50094;51.356;-0.196;2022-08-05T13:36:46;0;0;
63915;PMS5003;50094;51.356;-0.196;2022-08-05T13:39:14;0;0;
63915;PMS5003;50094;51.356;-0.196;2022-08-05T13:41:42;1;1;
63915;PMS5003;50094;51.356;-0.196;2022-08-05T13:44:09;3;1;
63915;PMS5003;50094;51.356;-0.196;2022-08-05T13:46:37;1;1;
63915;PMS5003;50094;51.356;-0.196;2022-08-05T13:49:04;1;1;
63915;PMS5003;50094;51.356;-0.196;2022-08-05T13:51:32;1;1;
63915;PMS5003;50094;51.356;-0.196;2022-08-05T13:54:00;2;0;
63915;PMS5003;50094;51.356;-0.196;2022-08-05T13:56:27;0;0;
63915;PMS5003;50094;51.356;-0.196;2022-08-05T13:58:55;1;0;
63915;PMS5003;50094;51.356;-0.196;2022-08-05T14:01:22;0;0;
63915;PMS5003;50094;51.356;-0.196;2022-08-05T14:03:50;0;0;
63915;PMS5003;50094;51.356;-0.196;2022-08-05T14:06:18;1;1;
63915;PMS5003;50094;51.356;-0.196;2022-08-05T14:08:45;1;1;
63915;PMS5003;50094;51.356;-0.196;2022-08-05T14:11:12;1;1;
63915;PMS5003;50094;51.356;-0.196;2022-08-05T14:13:40;0;0;
63915;PMS5003;50094;51.356;-0.196;2022-08-05T14:16:08;2;2;
63915;PMS5003;50094;51.356;-0.196;2022-08-05T14:18:35;1;0;
63915;PMS5003;50094;51.356;-0.196;2022-08-05T14:21:03;2;2;
63915;PMS5003;50094;51.356;-0.196;2022-08-05T14:23:30;1;1;
63915;PMS5003;50094;51.356;-0.196;2022-08-05T14:25:58;0;0;
63915;PMS5003;50094;51.356;-0.196;2022-08-05T14:28:26;1;1;
63915;PMS5003;50094;51.356;-0.196;2022-08-05T14:30:53;1;1;
63915;PMS5003;50094;51.356;-0.196;2022-08-05T14:33:21;1;1;
63915;PMS5003;50094;51.356;-0.196;2022-08-05T14:35:48;0;0;
63915;PMS5003;50094;51.356;-0.196;2022-08-05T14:38:16;0;0;
63915;PMS5003;50094;51.356;-0.196;2022-08-05T14:40:44;1;1;
63915;PMS5003;50094;51.356;-0.196;2022-08-05T14:43:11;1;1;
63915;PMS5003;50094;51.356;-0.196;2022-08-05T14:45:39;0;0;
63915;PMS5003;50094;51.356;-0.196;2022-08-05T14:48:06;0;0;
63915;PMS5003;50094;51.356;-0.196;2022-08-05T14:50:34;2;1;
63915;PMS5003;50094;51.356;-0.196;2022-08-05T14:53:01;1;1;
63915;PMS5003;50094;51.356;-0.196;2022-08-05T14:55:29;1;1;
63915;PMS5003;50094;51.356;-0.196;2022-08-05T14:57:57;0;0;
63915;PMS5003;50094;51.356;-0.196;2022-08-05T15:00:25;1;1;
63915;PMS5003;50094;51.356;-0.196;2022-08-05T15:02:54;1;1;
63915;PMS5003;50094;51.356;-0.196;2022-08-05T15:05:21;0;0;
63915;PMS5003;50094;51.356;-0.196;2022-08-05T15:07:49;1;0;
63915;PMS5003;50094;51.356;-0.196;2022-08-05T15:10:16;2;0;
63915;PMS5003;50094;51.356;-0.196;2022-08-05T15:12:44;1;1;
63915;PMS5003;50094;51.356;-0.196;2022-08-05T15:15:12;1;1;
63915;PMS5003;50094;51.356;-0.196;2022-08-05T15:17:39;0;0;
63915;PMS5003;50094;51.356;-0.196;2022-08-05T15:20:07;0;0;
63915;PMS5003;50094;51.356;-0.196;2022-08-05T15:22:36;0;0;
63915;PMS5003;50094;51.356;-0.196;2022-08-05T15:25:04;1;1;
63915;PMS5003;50094;51.356;-0.196;2022-08-05T15:27:32;1;1;
63915;PMS5003;50094;51.356;-0.196;2022-08-05T15:30:00;1;0;
63915;PMS5003;50094;51.356;-0.196;2022-08-05T15:32:27;0;0;
63915;PMS5003;50094;51.356;-0.196;2022-08-05T15:34:55;1;1;
63915;PMS5003;50094;51.356;-0.196;2022-08-05T15:37:23;1;1;
63915;PMS5003;50094;51.356;-0.196;2022-08-05T15:39:50;1;1;
63915;PMS5003;50094;51.356;-0.196;2022-08-05T15:42:18;0;0;
63915;PMS5003;50094;51.356;-0.196;2022-08-05T15:44:45;0;0;
63915;PMS5003;50094;51.356;-0.196;2022-08-05T15:47:13;0;0;
63915;PMS5003;50094;51.356;-0.196;2022-08-05T15:49:40;0;0;
63915;PMS5003;50094;51.356;-0.196;2022-08-05T15:52:08;0;0;
63915;PMS5003;50094;51.356;-0.196;2022-08-05T15:54:36;0;0;
63915;PMS5003;50094;51.356;-0.196;2022-08-05T15:57:03;0;0;
63915;PMS5003;50094;51.356;-0.196;2022-08-05T15:59:31;0;0;
63915;PMS5003;50094;51.356;-0.196;2022-08-05T16:01:59;0;0;
63915;PMS5003;50094;51.356;-0.196;2022-08-05T16:04:27;0;0;
63915;PMS5003;50094;51.356;-0.196;2022-08-05T16:06:54;0;0;
63915;PMS5003;50094;51.356;-0.196;2022-08-05T16:09:22;0;0;
63915;PMS5003;50094;51.356;-0.196;2022-08-05T16:11:51;0;0;
63915;PMS5003;50094;51.356;-0.196;2022-08-05T16:14:18;0;0;
63915;PMS5003;50094;51.356;-0.196;2022-08-05T16:16:46;0;0;
63915;PMS5003;50094;51.356;-0.196;2022-08-05T16:19:13;0;0;
63915;PMS5003;50094;51.356;-0.196;2022-08-05T16:21:41;0;0;
63915;PMS5003;50094;51.356;-0.196;2022-08-05T16:24:09;0;0;
63915;PMS5003;50094;51.356;-0.196;2022-08-05T16:26:47;0;0;
63915;PMS5003;50094;51.356;-0.196;2022-08-05T16:29:16;1;1;
63915;PMS5003;50094;51.356;-0.196;2022-08-05T16:31:43;0;0;
63915;PMS5003;50094;51.356;-0.196;2022-08-05T16:34:11;0;0;
63915;PMS5003;50094;51.356;-0.196;2022-08-05T16:36:38;1;1;
63915;PMS5003;50094;51.356;-0.196;2022-08-05T16:39:06;0;0;
63915;PMS5003;50094;51.356;-0.196;2022-08-05T16:41:34;0;0;
63915;PMS5003;50094;51.356;-0.196;2022-08-05T16:44:02;0;0;
63915;PMS5003;50094;51.356;-0.196;2022-08-05T16:46:30;0;0;
63915;PMS5003;50094;51.356;-0.196;2022-08-05T16:48:57;1;1;